Big Trout Lake Airport
CYTL : now visible

Airfield :











YOU CAN JOIN US ON...

 
LOGIN :

Register | Disclaimer

   EN    FR    IT 

 









Legend :    VFR   Marginal VFR   IFR   Intensive IFR   Very Intensive IFR
Visi :
Ceiling :
>= 8 km
>= 3000ft
5 to 8 km
1000 to 3000 ft
1500m to 5 km
500 to 1000 ft
800 to 1500m
200 to 500 ft
< 800m
< 200 ft
Symbols :   Thunderstorms  Fog  Heavy snow  Heavy precipitations  Wind > 20 kt






- Airport Elevation : 729 ft
- IATA code : YTL


CYTL - Big Trout Lake

CURRENT METAR :
  • 072000Z AUTO 24009G17KT 220V280 9SM CLR 29/16 A2975 RMK TS/LTNG TEMPO UNAVBL SLP076 DENSITY ALT 2700FT

EXPIRED METARs :
  • 071900Z AUTO 25009G15KT 9SM FEW060 29/17 A2975 RMK SLP079 DENSITY ALT 2600FT

TAF TAF CYTL
Valid from the 07 at 20:00 until the 08 at 08:00 UTC


071938Z 0720/0808 24010KT P6SM SCT070
TEMPO 0720/0806 BKN070
BECMG 0801/0803 VRB03KT
FM080600 VRB03KT P6SM FEW070 RMK FCST BASED ON AUTO OBS. NXT FCST BY 080200Z
CZWG FIR / North America



MET'MAP, your aeronautical weather chart ! - Copyright ORBIFLY December 2007 - Disclaimer

ORBIFLY MET'MAP TEAM :

Programming & Development : Alexandra Zaïnal
Concept & original design : Baudouin d'Aumeries
Assistance for programming : Marc-Olivier Méhu
Technical & hardware support : Manuel Goepfert

Contact : metmap@orbifly.com




SOURCES & CREDITS :

   NOAA       Earth
Advisory